createdAt,value
2023-05-19T00:00:41.386Z,89.11
2023-05-19T00:01:41.377Z,91.10
2023-05-19T00:02:41.505Z,90.93
2023-05-19T00:03:41.439Z,90.41
2023-05-19T00:04:41.359Z,91.56
2023-05-19T00:05:41.400Z,90.20
2023-05-19T00:06:41.337Z,89.74
2023-05-19T00:07:41.312Z,91.62
2023-05-19T00:08:41.304Z,92.71
2023-05-19T00:09:41.346Z,93.90
2023-05-19T00:10:41.296Z,94.68
2023-05-19T00:11:41.298Z,93.84
2023-05-19T00:12:41.265Z,93.95
2023-05-19T00:13:41.246Z,92.48
2023-05-19T00:14:41.245Z,91.85
2023-05-19T00:15:41.303Z,92.33
2023-05-19T00:16:41.221Z,90.93
2023-05-19T00:17:41.236Z,90.31
2023-05-19T00:18:41.200Z,89.68
2023-05-19T00:19:41.191Z,88.80
2023-05-19T00:20:41.310Z,88.03
2023-05-19T00:21:41.208Z,87.19
2023-05-19T00:22:41.158Z,87.61
2023-05-19T00:23:41.144Z,88.59
2023-05-19T00:24:41.136Z,87.96
2023-05-19T00:25:41.126Z,89.01
2023-05-19T00:26:41.135Z,89.11
2023-05-19T00:27:41.130Z,91.14
2023-05-19T00:28:41.094Z,92.23
2023-05-19T00:29:41.085Z,94.36
2023-05-19T00:30:41.066Z,95.87
2023-05-19T00:31:41.083Z,96.55
2023-05-19T00:32:41.120Z,95.14
2023-05-19T00:33:41.111Z,93.99
2023-05-19T00:34:41.040Z,93.32
2023-05-19T00:35:41.043Z,91.96
2023-05-19T00:36:41.013Z,90.97
2023-05-19T00:37:40.989Z,90.56
2023-05-19T00:38:40.996Z,89.99
2023-05-19T00:39:41.001Z,89.47
2023-05-19T00:40:40.971Z,88.59
2023-05-19T00:41:40.966Z,87.65
2023-05-19T00:42:40.959Z,87.02
2023-05-19T00:43:40.938Z,86.92
2023-05-19T00:44:40.934Z,88.07
2023-05-19T00:45:40.952Z,88.70
2023-05-19T00:46:40.975Z,87.13
2023-05-19T00:47:40.921Z,86.46
2023-05-19T00:48:40.889Z,86.46
2023-05-19T00:49:40.881Z,88.80
2023-05-19T00:50:40.873Z,87.17
2023-05-19T00:51:40.892Z,87.07
2023-05-19T00:52:40.861Z,87.17
2023-05-19T00:53:40.846Z,87.38
2023-05-19T00:54:40.836Z,87.73
2023-05-19T00:55:40.822Z,89.40
2023-05-19T00:56:40.823Z,91.12
2023-05-19T00:57:40.821Z,94.93
2023-05-19T00:58:40.791Z,96.08
2023-05-19T00:59:40.781Z,93.57
2023-05-19T01:00:40.826Z,92.31
2023-05-19T01:01:40.762Z,90.70
2023-05-19T01:02:40.825Z,90.81
2023-05-19T01:03:40.944Z,89.97
2023-05-19T01:04:40.741Z,88.99
2023-05-19T01:05:40.727Z,89.83
2023-05-19T01:06:40.714Z,89.51
2023-05-19T01:07:40.704Z,88.67
2023-05-19T01:08:40.687Z,88.21
2023-05-19T01:09:40.757Z,87.90
2023-05-19T01:10:40.677Z,87.27
2023-05-19T01:11:40.671Z,87.69
2023-05-19T01:12:40.667Z,92.02
2023-05-19T01:13:42.182Z,94.15
2023-05-19T01:14:40.634Z,96.29
2023-05-19T01:15:40.649Z,96.02
2023-05-19T01:16:40.665Z,96.55
2023-05-19T01:17:40.643Z,98.37
2023-05-19T01:18:40.624Z,96.69
2023-05-19T01:19:40.589Z,97.32
2023-05-19T01:20:40.561Z,99.10
2023-05-19T01:21:40.585Z,99.99
2023-05-19T01:22:40.546Z,99.99
2023-05-19T01:23:40.547Z,99.99
2023-05-19T01:24:40.525Z,99.99
2023-05-19T01:25:40.521Z,99.99
2023-05-19T01:26:40.506Z,99.99
2023-05-19T01:27:40.526Z,99.99
2023-05-19T01:28:40.502Z,99.31
2023-05-19T01:29:40.479Z,98.47
2023-05-19T01:30:40.420Z,98.11
2023-05-19T01:31:40.457Z,98.01
2023-05-19T01:32:40.503Z,97.49
2023-05-19T01:33:40.469Z,95.60
2023-05-19T01:34:40.417Z,94.09
2023-05-19T01:35:40.417Z,92.83
2023-05-19T01:36:40.426Z,91.33
2023-05-19T01:37:40.402Z,90.39
2023-05-19T01:38:40.386Z,90.08
2023-05-19T01:39:40.410Z,89.65
2023-05-19T01:40:40.375Z,89.30
2023-05-19T01:41:40.319Z,88.88
2023-05-19T01:42:40.356Z,88.57
2023-05-19T01:43:40.349Z,89.09
2023-05-19T01:44:40.332Z,90.77
2023-05-19T01:45:40.403Z,90.18
2023-05-19T01:46:40.272Z,93.04
2023-05-19T01:47:40.323Z,94.87
2023-05-19T01:48:40.238Z,95.39
2023-05-19T01:49:40.244Z,93.87
2023-05-19T01:50:40.223Z,96.17
2023-05-19T01:51:40.234Z,97.42
2023-05-19T01:52:40.201Z,98.52
2023-05-19T01:53:40.197Z,98.88
2023-05-19T01:54:40.192Z,99.08
2023-05-19T01:55:40.177Z,99.61
2023-05-19T01:56:40.161Z,99.99
2023-05-19T01:57:40.174Z,99.99
2023-05-19T01:58:40.148Z,99.99
2023-05-19T01:59:40.138Z,99.99
2023-05-19T02:00:40.118Z,99.99
2023-05-19T02:01:40.234Z,98.88
2023-05-19T02:02:40.132Z,99.88
2023-05-19T02:03:40.126Z,99.99
2023-05-19T02:04:40.274Z,98.83
2023-05-19T02:05:40.086Z,97.26
2023-05-19T02:06:40.072Z,96.17
2023-05-19T02:07:40.062Z,96.90
2023-05-19T02:08:40.047Z,95.86
2023-05-19T02:09:40.070Z,94.13
2023-05-19T02:10:40.025Z,93.19
2023-05-19T02:11:40.023Z,93.30
2023-05-19T02:12:40.004Z,92.42
2023-05-19T02:13:39.993Z,91.58
2023-05-19T02:14:39.990Z,91.89
2023-05-19T02:15:40.046Z,91.06
2023-05-19T02:16:39.978Z,91.06
2023-05-19T02:17:39.981Z,91.16
2023-05-19T02:18:39.953Z,90.84
2023-05-19T02:19:39.925Z,91.47
2023-05-19T02:20:39.921Z,92.52
2023-05-19T02:21:39.928Z,93.61
2023-05-19T02:22:39.908Z,95.86
2023-05-19T02:23:39.890Z,97.58
2023-05-19T02:24:39.866Z,98.77
2023-05-19T02:25:39.867Z,98.04
2023-05-19T02:26:39.862Z,98.92
2023-05-19T02:27:39.889Z,99.99
2023-05-19T02:28:39.835Z,99.99
2023-05-19T02:29:39.828Z,99.99
2023-05-19T02:30:39.811Z,99.99
2023-05-19T02:31:39.875Z,99.99
2023-05-19T02:32:39.859Z,99.99
2023-05-19T02:33:39.816Z,99.99
2023-05-19T02:34:39.771Z,99.99
2023-05-19T02:35:39.774Z,99.99
2023-05-19T02:36:39.748Z,99.99
2023-05-19T02:37:39.745Z,99.77
2023-05-19T02:38:39.726Z,98.83
2023-05-19T02:39:39.753Z,97.22
2023-05-19T02:40:39.713Z,96.27
2023-05-19T02:41:39.702Z,97.42
2023-05-19T02:42:39.707Z,99.15
2023-05-19T02:43:39.679Z,99.67
2023-05-19T02:44:39.687Z,99.57
2023-05-19T02:45:39.696Z,99.61
2023-05-19T02:46:39.675Z,99.99
2023-05-19T02:47:39.665Z,99.99
2023-05-19T02:48:39.634Z,99.99
2023-05-19T02:49:39.639Z,98.83
2023-05-19T02:50:39.627Z,97.05
2023-05-19T02:51:39.638Z,97.68
2023-05-19T02:52:39.593Z,97.16
2023-05-19T02:53:39.590Z,96.94
2023-05-19T02:54:39.565Z,99.67
2023-05-19T02:55:39.571Z,99.99
2023-05-19T02:56:39.559Z,99.04
2023-05-19T02:57:39.572Z,98.31
2023-05-19T02:58:39.565Z,97.89
2023-05-19T02:59:39.529Z,97.58
2023-05-19T03:00:39.510Z,99.15
2023-05-19T03:01:39.603Z,99.99
2023-05-19T03:02:39.570Z,99.99
2023-05-19T03:03:39.602Z,99.99
2023-05-19T03:04:39.469Z,99.99
2023-05-19T03:05:39.484Z,99.99
2023-05-19T03:06:39.466Z,99.99
2023-05-19T03:07:39.442Z,99.99
2023-05-19T03:08:41.632Z,99.99
2023-05-19T03:09:39.451Z,99.99
2023-05-19T03:10:39.408Z,99.99
2023-05-19T03:11:39.403Z,99.99
2023-05-19T03:12:39.394Z,99.99
2023-05-19T03:13:39.394Z,99.99
2023-05-19T03:14:39.384Z,99.99
2023-05-19T03:15:39.496Z,99.99
2023-05-19T03:16:39.438Z,99.25
2023-05-19T03:17:39.530Z,98.21
2023-05-19T03:18:39.334Z,96.59
2023-05-19T03:19:39.323Z,95.75
2023-05-19T03:20:41.526Z,94.97
2023-05-19T03:21:39.324Z,94.03
2023-05-19T03:22:39.301Z,93.19
2023-05-19T03:23:39.296Z,92.63
2023-05-19T03:24:39.269Z,95.45
2023-05-19T03:25:39.265Z,94.09
2023-05-19T03:26:39.252Z,94.89
2023-05-19T03:27:39.268Z,95.41
2023-05-19T03:28:39.228Z,95.31
2023-05-19T03:29:39.223Z,96.14
2023-05-19T03:30:39.465Z,95.41
2023-05-19T03:31:39.530Z,96.88
2023-05-19T03:32:39.272Z,96.56
2023-05-19T03:33:39.232Z,98.07
2023-05-19T03:34:39.163Z,99.01
2023-05-19T03:35:39.168Z,99.32
2023-05-19T03:36:39.147Z,99.99
2023-05-19T03:37:39.139Z,99.99
2023-05-19T03:38:39.137Z,99.99
2023-05-19T03:39:39.149Z,99.99
2023-05-19T03:40:39.115Z,99.99
2023-05-19T03:41:39.107Z,99.70
2023-05-19T03:42:39.092Z,97.81
2023-05-19T03:43:39.080Z,96.35
2023-05-19T03:44:39.084Z,97.88
2023-05-19T03:45:39.124Z,99.34
2023-05-19T03:46:39.082Z,99.96
2023-05-19T03:47:39.111Z,99.99
2023-05-19T03:48:39.040Z,99.99
2023-05-19T03:49:39.031Z,99.99
2023-05-19T03:50:39.035Z,99.99
2023-05-19T03:51:39.040Z,98.56
2023-05-19T03:52:38.991Z,97.41
2023-05-19T03:53:38.985Z,95.84
2023-05-19T03:54:38.976Z,93.65
2023-05-19T03:55:38.981Z,95.21
2023-05-19T03:56:38.954Z,97.00
2023-05-19T03:57:38.978Z,98.83
2023-05-19T03:58:38.933Z,99.99
2023-05-19T03:59:38.921Z,99.99
2023-05-19T04:00:38.909Z,99.99
2023-05-19T04:01:38.908Z,99.99
2023-05-19T04:02:38.955Z,99.99
2023-05-19T04:03:38.937Z,99.99
2023-05-19T04:04:38.960Z,99.99
2023-05-19T04:05:38.895Z,99.99
2023-05-19T04:06:38.870Z,99.99
2023-05-19T04:07:38.844Z,99.99
2023-05-19T04:08:38.847Z,99.99
2023-05-19T04:09:38.845Z,99.99
2023-05-19T04:10:38.814Z,99.99
2023-05-19T04:11:38.806Z,99.99
2023-05-19T04:12:38.804Z,99.99
2023-05-19T04:13:38.782Z,99.99
2023-05-19T04:14:38.777Z,99.99
2023-05-19T04:15:38.847Z,99.99
2023-05-19T04:16:38.754Z,99.99
2023-05-19T04:17:38.792Z,99.99
2023-05-19T04:18:38.763Z,99.99
2023-05-19T04:19:38.724Z,99.99
2023-05-19T04:20:38.716Z,99.99
2023-05-19T04:21:38.764Z,99.99
2023-05-19T04:22:38.696Z,99.99
2023-05-19T04:23:38.680Z,99.99
2023-05-19T04:24:38.669Z,99.99
2023-05-19T04:25:38.668Z,99.99
2023-05-19T04:26:38.650Z,99.99
2023-05-19T04:27:39.306Z,99.99
2023-05-19T04:28:38.787Z,99.99
2023-05-19T04:29:38.627Z,99.99
2023-05-19T04:30:38.648Z,99.99
2023-05-19T04:31:38.681Z,99.99
2023-05-19T04:32:38.600Z,99.99
2023-05-19T04:33:38.640Z,99.99
2023-05-19T04:34:41.648Z,99.99
2023-05-19T04:35:38.572Z,99.99
2023-05-19T04:36:38.570Z,99.99
2023-05-19T04:37:38.540Z,99.99
2023-05-19T04:38:38.531Z,99.99
2023-05-19T04:39:38.551Z,99.99
2023-05-19T04:40:38.516Z,99.99
2023-05-19T04:41:38.509Z,99.99
2023-05-19T04:42:38.484Z,99.99
2023-05-19T04:43:38.488Z,99.99
2023-05-19T04:44:38.471Z,99.99
2023-05-19T04:45:38.490Z,99.99
2023-05-19T04:46:38.537Z,99.99
2023-05-19T04:47:38.487Z,99.99
2023-05-19T04:48:38.435Z,99.99
2023-05-19T04:49:38.440Z,99.99
2023-05-19T04:50:38.406Z,99.99
2023-05-19T04:51:38.433Z,99.99
2023-05-19T04:52:38.401Z,99.99
2023-05-19T04:53:38.404Z,99.99
2023-05-19T04:54:38.377Z,98.55
2023-05-19T04:55:38.370Z,98.19
2023-05-19T04:56:38.355Z,96.33
2023-05-19T04:57:38.375Z,96.23
2023-05-19T04:58:39.682Z,96.64
2023-05-19T04:59:38.351Z,96.29
2023-05-19T05:00:38.326Z,96.49
2023-05-19T05:01:38.352Z,95.98
2023-05-19T05:02:38.388Z,95.50
2023-05-19T05:03:38.397Z,96.08
2023-05-19T05:04:38.272Z,95.77
2023-05-19T05:05:38.263Z,94.69
2023-05-19T05:06:38.266Z,94.75
2023-05-19T05:07:38.239Z,94.19
2023-05-19T05:08:38.227Z,93.94
2023-05-19T05:09:38.251Z,92.97
2023-05-19T05:10:38.211Z,91.48
2023-05-19T05:11:38.223Z,91.03
2023-05-19T05:12:38.186Z,90.53
2023-05-19T05:13:38.185Z,88.64
2023-05-19T05:14:38.183Z,87.05
2023-05-19T05:15:38.183Z,86.60
2023-05-19T05:16:38.207Z,86.29
2023-05-19T05:17:38.251Z,85.57
2023-05-19T05:18:38.171Z,86.35
2023-05-19T05:19:38.114Z,85.70
2023-05-19T05:20:38.095Z,85.04
2023-05-19T05:21:38.115Z,83.91
2023-05-19T05:22:38.067Z,83.40
2023-05-19T05:23:38.062Z,84.22
2023-05-19T05:24:38.048Z,84.74
2023-05-19T05:25:38.048Z,84.16
2023-05-19T05:26:38.031Z,85.28
2023-05-19T05:27:38.169Z,85.35
2023-05-19T05:28:38.015Z,84.84
2023-05-19T05:29:38.006Z,85.76
2023-05-19T05:30:38.001Z,85.35
2023-05-19T05:31:37.982Z,85.11
2023-05-19T05:32:38.006Z,85.38
2023-05-19T05:33:38.041Z,84.61
2023-05-19T05:34:37.948Z,82.93
2023-05-19T05:35:37.935Z,83.25
2023-05-19T05:36:37.930Z,83.04
2023-05-19T05:37:37.926Z,82.63
2023-05-19T05:38:37.918Z,83.45
2023-05-19T05:39:38.056Z,83.51
2023-05-19T05:40:37.945Z,82.96
2023-05-19T05:41:37.895Z,82.10
2023-05-19T05:42:37.866Z,79.71
2023-05-19T05:43:37.870Z,80.49
2023-05-19T05:44:37.873Z,78.82
2023-05-19T05:45:37.873Z,78.17
2023-05-19T05:46:37.829Z,76.84
2023-05-19T05:47:37.839Z,77.52
2023-05-19T05:48:37.816Z,76.81
2023-05-19T05:49:37.805Z,76.06
2023-05-19T05:50:37.808Z,75.95
2023-05-19T05:51:37.802Z,75.85
2023-05-19T05:52:37.783Z,76.26
2023-05-19T05:53:37.750Z,76.06
2023-05-19T05:54:37.757Z,75.31
2023-05-19T05:55:37.744Z,74.08
2023-05-19T05:56:37.726Z,72.79
2023-05-19T05:57:37.741Z,75.24
2023-05-19T05:58:37.734Z,74.22
2023-05-19T05:59:37.706Z,75.31
2023-05-19T06:00:37.685Z,76.02
2023-05-19T06:01:37.723Z,75.00
2023-05-19T06:02:37.844Z,73.88
2023-05-19T06:03:37.717Z,74.15
2023-05-19T06:04:37.646Z,73.16
2023-05-19T06:05:37.697Z,71.94
2023-05-19T06:06:37.618Z,73.77
2023-05-19T06:07:37.659Z,73.47
2023-05-19T06:08:37.625Z,74.69
2023-05-19T06:09:37.610Z,73.84
2023-05-19T06:10:37.660Z,75.27
2023-05-19T06:11:37.569Z,72.11
2023-05-19T06:12:37.563Z,75.03
2023-05-19T06:13:37.556Z,74.28
2023-05-19T06:14:37.548Z,72.92
2023-05-19T06:15:37.602Z,71.80
2023-05-19T06:16:37.774Z,70.68
2023-05-19T06:17:37.558Z,72.01
2023-05-19T06:18:37.520Z,70.28
2023-05-19T06:19:37.486Z,70.45
2023-05-19T06:20:37.488Z,71.67
2023-05-19T06:21:37.476Z,71.77
2023-05-19T06:22:37.452Z,70.86
2023-05-19T06:23:37.433Z,70.62
2023-05-19T06:24:39.372Z,70.01
2023-05-19T06:25:37.417Z,70.21
2023-05-19T06:26:37.410Z,70.07
2023-05-19T06:27:37.419Z,68.96
2023-05-19T06:28:37.386Z,69.53
2023-05-19T06:29:37.379Z,66.18
2023-05-19T06:30:37.367Z,68.32
2023-05-19T06:31:37.399Z,68.92
2023-05-19T06:32:37.383Z,70.31
2023-05-19T06:33:37.379Z,68.08
2023-05-19T06:34:37.322Z,66.86
2023-05-19T06:35:37.302Z,65.94
2023-05-19T06:36:37.303Z,67.67
2023-05-19T06:37:37.284Z,67.94
2023-05-19T06:38:37.277Z,67.13
2023-05-19T06:39:37.283Z,64.70
2023-05-19T06:40:37.270Z,68.12
2023-05-19T06:41:37.255Z,67.30
2023-05-19T06:42:37.244Z,67.07
2023-05-19T06:43:37.232Z,66.97
2023-05-19T06:44:37.220Z,66.02
2023-05-19T06:45:37.229Z,64.91
2023-05-19T06:46:37.218Z,65.39
2023-05-19T06:47:37.224Z,61.02
2023-05-19T06:48:37.183Z,62.14
2023-05-19T06:49:37.163Z,63.86
2023-05-19T06:50:37.156Z,63.86
2023-05-19T06:51:37.220Z,65.79
2023-05-19T06:52:37.132Z,65.36
2023-05-19T06:53:37.125Z,59.88
2023-05-19T06:54:37.115Z,61.02
2023-05-19T06:55:44.101Z,63.93
2023-05-19T06:56:38.116Z,63.93
2023-05-19T06:57:37.082Z,63.81
2023-05-19T06:58:37.070Z,62.18
2023-05-19T06:59:37.062Z,62.79
2023-05-19T07:00:37.189Z,63.47
2023-05-19T07:01:37.093Z,62.76
2023-05-19T07:02:37.125Z,64.86
2023-05-19T07:03:37.100Z,59.06
2023-05-19T07:04:37.024Z,61.79
2023-05-19T07:05:37.013Z,61.39
2023-05-19T07:06:36.991Z,57.85
2023-05-19T07:07:36.988Z,61.46
2023-05-19T07:08:37.010Z,61.87
2023-05-19T07:09:36.956Z,59.51
2023-05-19T07:10:36.946Z,59.51
2023-05-19T07:11:36.948Z,60.22
2023-05-19T07:12:36.914Z,59.69
2023-05-19T07:13:36.920Z,57.46
2023-05-19T07:14:36.921Z,58.40
2023-05-19T07:15:36.891Z,57.76
2023-05-19T07:16:36.938Z,57.67
2023-05-19T07:17:36.907Z,58.17
2023-05-19T07:18:36.894Z,59.96
2023-05-19T07:19:36.845Z,56.23
2023-05-19T07:20:36.858Z,58.32
2023-05-19T07:21:36.832Z,58.01
2023-05-19T07:22:36.814Z,55.79
2023-05-19T07:23:36.802Z,56.07
2023-05-19T07:24:36.792Z,55.87
2023-05-19T07:25:36.787Z,55.24
2023-05-19T07:26:36.794Z,54.83
2023-05-19T07:27:36.762Z,51.91
2023-05-19T07:28:37.780Z,52.31
2023-05-19T07:29:36.734Z,53.40
2023-05-19T07:30:36.740Z,52.49
2023-05-19T07:31:36.802Z,53.40
2023-05-19T07:32:36.770Z,51.38
2023-05-19T07:33:36.698Z,52.69
2023-05-19T07:34:36.748Z,53.17
2023-05-19T07:35:36.674Z,50.05
2023-05-19T07:36:36.667Z,51.26
2023-05-19T07:37:36.670Z,51.73
2023-05-19T07:38:36.722Z,51.36
2023-05-19T07:39:36.634Z,48.11
2023-05-19T07:40:36.624Z,49.93
2023-05-19T07:41:36.649Z,50.13
2023-05-19T07:42:36.597Z,50.10
2023-05-19T07:43:36.591Z,50.68
2023-05-19T07:44:36.604Z,49.48
2023-05-19T07:45:36.593Z,50.18
2023-05-19T07:46:36.623Z,49.48
2023-05-19T07:47:36.601Z,48.77
2023-05-19T07:48:36.537Z,49.98
2023-05-19T07:49:36.537Z,48.57
2023-05-19T07:50:36.560Z,48.67
2023-05-19T07:51:36.528Z,48.57
2023-05-19T07:52:36.504Z,46.98
2023-05-19T07:53:36.493Z,50.60
2023-05-19T07:54:36.472Z,47.99
2023-05-19T07:55:36.474Z,48.57
2023-05-19T07:56:36.475Z,46.96
2023-05-19T07:57:36.439Z,47.94
2023-05-19T07:58:36.448Z,48.02
2023-05-19T07:59:36.425Z,45.91
2023-05-19T08:00:36.421Z,43.80
2023-05-19T08:01:36.419Z,43.78
2023-05-19T08:02:36.475Z,44.81
2023-05-19T08:03:36.509Z,46.80
2023-05-19T08:04:36.423Z,47.70
2023-05-19T08:05:36.366Z,47.80
2023-05-19T08:06:36.362Z,46.89
2023-05-19T08:07:36.335Z,47.02
2023-05-19T08:08:36.350Z,47.52
2023-05-19T08:09:36.316Z,47.80
2023-05-19T08:10:36.323Z,47.80
2023-05-19T08:11:36.290Z,47.47
2023-05-19T08:12:36.292Z,47.75
2023-05-19T08:13:36.300Z,47.55
2023-05-19T08:14:36.300Z,47.25
2023-05-19T08:15:36.299Z,47.13
2023-05-19T08:16:36.259Z,47.13
2023-05-19T08:17:36.278Z,47.23
2023-05-19T08:18:36.214Z,47.31
2023-05-19T08:19:36.216Z,45.90
2023-05-19T08:20:36.232Z,45.90
2023-05-19T08:21:36.185Z,47.00
2023-05-19T08:22:36.185Z,46.68
2023-05-19T08:23:36.161Z,44.88
2023-05-19T08:24:36.162Z,45.68
2023-05-19T08:25:36.148Z,44.38
2023-05-19T08:26:37.756Z,43.38
2023-05-19T08:27:36.134Z,45.58
2023-05-19T08:28:36.115Z,44.96
2023-05-19T08:29:36.107Z,45.36
2023-05-19T08:30:36.095Z,44.04
2023-05-19T08:31:36.128Z,45.24
2023-05-19T08:32:36.122Z,44.64
2023-05-19T08:33:36.064Z,44.74
2023-05-19T08:34:36.066Z,44.74
2023-05-19T08:35:36.048Z,44.71
2023-05-19T08:36:36.026Z,43.32
2023-05-19T08:37:36.016Z,42.33
2023-05-19T08:38:36.040Z,42.03
2023-05-19T08:39:35.995Z,43.74
2023-05-19T08:40:36.002Z,44.01
2023-05-19T08:41:35.976Z,41.63
2023-05-19T08:42:35.967Z,43.04
2023-05-19T08:43:35.965Z,43.84
2023-05-19T08:44:35.986Z,42.82
2023-05-19T08:45:35.939Z,42.71
2023-05-19T08:46:35.990Z,43.49
2023-05-19T08:47:35.918Z,44.70
2023-05-19T08:48:35.901Z,42.49
2023-05-19T08:49:35.899Z,42.10
2023-05-19T08:50:35.936Z,42.19
2023-05-19T08:51:35.869Z,42.41
2023-05-19T08:52:35.855Z,42.10
2023-05-19T08:53:35.851Z,42.61
2023-05-19T08:54:35.846Z,43.59
2023-05-19T08:55:35.833Z,42.49
2023-05-19T08:56:35.849Z,42.40
2023-05-19T08:57:35.813Z,41.77
2023-05-19T08:58:35.804Z,40.88
2023-05-19T08:59:35.789Z,41.47
2023-05-19T09:00:36.297Z,41.16
2023-05-19T09:02:35.830Z,40.78
2023-05-19T09:03:35.831Z,42.35
2023-05-19T09:04:35.832Z,41.96
2023-05-19T09:05:36.039Z,41.75
2023-05-19T09:06:35.714Z,40.86
2023-05-19T09:07:35.707Z,42.46
2023-05-19T09:08:35.728Z,41.25
2023-05-19T09:09:35.696Z,39.86
2023-05-19T09:10:35.678Z,39.26
2023-05-19T09:11:35.664Z,39.95
2023-05-19T09:12:35.648Z,41.66
2023-05-19T09:13:35.651Z,41.25
2023-05-19T09:14:35.672Z,40.53
2023-05-19T09:15:35.813Z,40.42
2023-05-19T09:16:35.647Z,40.52
2023-05-19T09:17:35.613Z,38.90
2023-05-19T09:18:35.585Z,38.90
2023-05-19T09:19:35.645Z,40.89
2023-05-19T09:20:35.599Z,39.20
2023-05-19T09:21:35.553Z,39.70
2023-05-19T09:22:35.548Z,40.20
2023-05-19T09:23:35.541Z,39.08
2023-05-19T09:24:35.525Z,37.59
2023-05-19T09:25:35.747Z,37.79
2023-05-19T09:26:36.343Z,39.18
2023-05-19T09:27:35.494Z,39.50
2023-05-19T09:28:35.479Z,39.00
2023-05-19T09:29:35.464Z,39.62
2023-05-19T09:30:35.454Z,39.60
2023-05-19T09:31:35.477Z,38.60
2023-05-19T09:32:35.512Z,38.09
2023-05-19T09:33:35.468Z,37.49
2023-05-19T09:34:35.415Z,37.38
2023-05-19T09:35:35.602Z,38.76
2023-05-19T09:36:35.398Z,35.88
2023-05-19T09:37:35.382Z,37.17
2023-05-19T09:38:35.393Z,37.77
2023-05-19T09:39:35.365Z,37.17
2023-05-19T09:40:35.355Z,37.65
2023-05-19T09:41:35.332Z,37.85
2023-05-19T09:42:35.333Z,36.65
2023-05-19T09:43:35.314Z,37.25
2023-05-19T09:44:35.334Z,36.24
2023-05-19T09:45:35.301Z,36.44
2023-05-19T09:46:35.420Z,35.82
2023-05-19T09:47:35.333Z,36.92
2023-05-19T09:48:35.278Z,37.81
2023-05-19T09:49:35.270Z,36.93
2023-05-19T09:50:35.292Z,37.23
2023-05-19T09:51:35.245Z,36.24
2023-05-19T09:52:35.226Z,35.14
2023-05-19T09:53:35.238Z,36.44
2023-05-19T09:54:35.203Z,35.36
2023-05-19T09:55:35.305Z,36.55
2023-05-19T09:56:35.219Z,36.83
2023-05-19T09:57:35.184Z,37.25
2023-05-19T09:58:35.558Z,36.95
2023-05-19T09:59:35.155Z,37.15
2023-05-19T10:00:35.343Z,37.45
2023-05-19T10:01:35.195Z,35.75
2023-05-19T10:02:35.170Z,35.75
2023-05-19T10:03:35.297Z,34.84
2023-05-19T10:04:35.193Z,35.06
2023-05-19T10:05:35.529Z,35.94
2023-05-19T10:06:35.084Z,35.92
2023-05-19T10:07:35.079Z,36.22
2023-05-19T10:08:35.985Z,35.92
2023-05-19T10:09:35.064Z,35.91
2023-05-19T10:10:35.051Z,35.31
2023-05-19T10:11:35.033Z,36.30
2023-05-19T10:12:35.040Z,35.71
2023-05-19T10:13:35.017Z,35.61
2023-05-19T10:14:35.029Z,35.61
2023-05-19T10:15:40.780Z,36.60
2023-05-19T10:16:36.045Z,35.22
2023-05-19T10:17:35.011Z,35.63
2023-05-19T10:18:35.247Z,35.33
2023-05-19T10:19:35.053Z,34.53
2023-05-19T10:20:35.213Z,34.71
2023-05-19T10:21:34.925Z,32.82
2023-05-19T10:22:34.925Z,34.92
2023-05-19T10:23:34.907Z,35.63
2023-05-19T10:24:34.899Z,33.93
2023-05-19T10:25:35.154Z,33.81
2023-05-19T10:26:34.888Z,34.11
2023-05-19T10:27:34.866Z,33.55
2023-05-19T10:28:34.850Z,34.84
2023-05-19T10:29:34.860Z,35.72
2023-05-19T10:30:34.830Z,34.63
2023-05-19T10:31:34.883Z,34.61
2023-05-19T10:32:34.960Z,34.91
2023-05-19T10:33:34.808Z,34.50
2023-05-19T10:34:34.779Z,34.89
2023-05-19T10:35:35.052Z,36.19
2023-05-19T10:36:34.764Z,36.19
2023-05-19T10:37:34.754Z,36.00
2023-05-19T10:38:34.773Z,36.21
2023-05-19T10:39:34.728Z,35.11
2023-05-19T10:40:34.729Z,35.80
2023-05-19T10:41:34.713Z,37.00
2023-05-19T10:42:34.704Z,36.10
2023-05-19T10:43:34.689Z,35.99
2023-05-19T10:44:34.711Z,35.29
2023-05-19T10:45:35.041Z,35.69
2023-05-19T10:46:34.747Z,36.07
2023-05-19T10:47:34.663Z,34.58
2023-05-19T10:48:34.653Z,34.50
2023-05-19T10:49:34.646Z,35.69
2023-05-19T10:50:34.673Z,35.59
2023-05-19T10:51:34.633Z,35.57
2023-05-19T10:52:34.595Z,35.27
2023-05-19T10:53:34.633Z,35.06
2023-05-19T10:54:34.573Z,35.16
2023-05-19T10:55:34.693Z,34.45
2023-05-19T10:56:34.594Z,34.15
2023-05-19T10:57:34.601Z,34.45
2023-05-19T10:58:34.537Z,34.84
2023-05-19T10:59:34.529Z,33.95
2023-05-19T11:00:34.520Z,35.14
2023-05-19T11:01:34.574Z,35.24
2023-05-19T11:02:34.539Z,35.04
2023-05-19T11:03:34.571Z,33.57
2023-05-19T11:04:34.542Z,34.96
2023-05-19T11:05:34.742Z,34.86
2023-05-19T11:06:34.454Z,34.66
2023-05-19T11:07:34.453Z,34.46
2023-05-19T11:08:34.471Z,33.95
2023-05-19T11:09:40.382Z,33.55
2023-05-19T11:10:35.428Z,33.45
2023-05-19T11:11:34.916Z,32.94
2023-05-19T11:12:34.390Z,33.14
2023-05-19T11:13:34.384Z,33.64
2023-05-19T11:14:34.410Z,33.44
2023-05-19T11:15:34.562Z,32.45
2023-05-19T11:16:34.370Z,33.15
2023-05-19T11:17:35.054Z,34.45
2023-05-19T11:18:34.330Z,33.95
2023-05-19T11:19:34.320Z,34.55
2023-05-19T11:20:34.367Z,34.34
2023-05-19T11:21:34.434Z,34.45
2023-05-19T11:22:34.287Z,35.04
2023-05-19T11:23:35.592Z,35.14
2023-05-19T11:24:34.265Z,34.55
2023-05-19T11:25:34.361Z,33.85
2023-05-19T11:26:34.272Z,33.75
2023-05-19T11:27:34.237Z,34.05
2023-05-19T11:28:34.241Z,33.54
2023-05-19T11:29:34.894Z,34.84
2023-05-19T11:30:34.208Z,33.47
2023-05-19T11:31:34.243Z,34.66
2023-05-19T11:32:34.229Z,33.67
2023-05-19T11:33:34.172Z,32.67
2023-05-19T11:34:34.158Z,34.46
2023-05-19T11:35:36.130Z,34.94
2023-05-19T11:36:34.152Z,34.64
2023-05-19T11:37:34.146Z,35.34
2023-05-19T11:38:34.140Z,34.46
2023-05-19T11:39:34.114Z,34.94
2023-05-19T11:40:34.108Z,34.74
2023-05-19T11:41:34.087Z,34.25
2023-05-19T11:42:34.086Z,33.75
2023-05-19T11:43:34.078Z,33.25
2023-05-19T11:44:34.086Z,35.44
2023-05-19T11:45:34.233Z,34.05
2023-05-19T11:46:34.068Z,32.96
2023-05-19T11:47:45.899Z,33.06
2023-05-19T11:48:35.054Z,33.36
2023-05-19T11:49:34.014Z,31.90
2023-05-19T11:50:34.036Z,35.19
2023-05-19T11:51:34.006Z,34.01
2023-05-19T11:52:33.986Z,35.11
2023-05-19T11:53:35.239Z,35.31
2023-05-19T11:54:33.960Z,35.99
2023-05-19T11:55:33.955Z,34.98
2023-05-19T11:56:33.978Z,31.94
2023-05-19T11:57:33.940Z,34.15
2023-05-19T11:58:33.933Z,33.85
2023-05-19T11:59:35.785Z,35.94
2023-05-19T12:00:33.926Z,35.03
2023-05-19T12:01:33.934Z,35.31
2023-05-19T12:02:33.990Z,35.29
2023-05-19T12:03:33.913Z,32.12
2023-05-19T12:04:33.910Z,35.75
2023-05-19T12:05:36.546Z,36.37
2023-05-19T12:06:33.889Z,37.37
2023-05-19T12:07:33.833Z,37.15
2023-05-19T12:08:33.844Z,36.64
2023-05-19T12:09:33.827Z,36.44
2023-05-19T12:10:33.811Z,36.32
2023-05-19T12:11:33.812Z,35.42
2023-05-19T12:12:33.777Z,34.81
2023-05-19T12:13:33.769Z,34.40
2023-05-19T12:14:33.773Z,34.08
2023-05-19T12:15:33.988Z,33.57
2023-05-19T12:16:33.784Z,33.78
2023-05-19T12:17:33.768Z,34.56
2023-05-19T12:18:33.716Z,33.57
2023-05-19T12:19:33.699Z,34.27
2023-05-19T12:20:33.724Z,35.16
2023-05-19T12:21:34.493Z,34.15
2023-05-19T12:22:33.670Z,34.74
2023-05-19T12:23:33.669Z,33.55
2023-05-19T12:24:33.654Z,32.66
2023-05-19T12:25:33.887Z,32.17
2023-05-19T12:26:33.648Z,34.74
2023-05-19T12:27:34.844Z,33.27
2023-05-19T12:28:33.609Z,33.97
2023-05-19T12:29:33.602Z,35.55
2023-05-19T12:30:34.837Z,32.57
2023-05-19T12:31:33.582Z,33.50
2023-05-19T12:32:33.598Z,34.01
2023-05-19T12:33:35.479Z,33.92
2023-05-19T12:34:33.540Z,34.69
2023-05-19T12:35:33.638Z,34.99
2023-05-19T12:36:33.533Z,33.48
2023-05-19T12:37:33.516Z,33.39
2023-05-19T12:38:33.578Z,34.08
2023-05-19T12:39:33.497Z,36.17
2023-05-19T12:40:34.035Z,35.27
2023-05-19T12:41:33.476Z,33.88
2023-05-19T12:42:33.466Z,33.98
2023-05-19T12:43:33.460Z,33.98
2023-05-19T12:44:33.461Z,33.17
2023-05-19T12:45:33.492Z,33.97
2023-05-19T12:46:33.453Z,34.68
2023-05-19T12:47:33.451Z,33.88
2023-05-19T12:48:33.400Z,32.49
2023-05-19T12:49:33.410Z,32.89
2023-05-19T12:50:33.616Z,31.88
2023-05-19T12:51:33.381Z,31.38
2023-05-19T12:52:33.367Z,32.06
2023-05-19T12:53:33.413Z,32.38